sensor_id;sensor_type;location;lat;lon;timestamp;P1;durP1;ratioP1;P2;durP2;ratioP2
3083;SDS011;1552;51.952;7.618;2023-07-30T00:01:43;5.25;;;3.03;;
3083;SDS011;1552;51.952;7.618;2023-07-30T00:04:10;3.90;;;2.65;;
3083;SDS011;1552;51.952;7.618;2023-07-30T00:06:36;5.03;;;2.90;;
3083;SDS011;1552;51.952;7.618;2023-07-30T00:09:02;6.47;;;2.92;;
3083;SDS011;1552;51.952;7.618;2023-07-30T00:11:29;3.88;;;2.47;;
3083;SDS011;1552;51.952;7.618;2023-07-30T00:13:55;4.47;;;2.50;;
3083;SDS011;1552;51.952;7.618;2023-07-30T00:16:21;2.88;;;2.60;;
3083;SDS011;1552;51.952;7.618;2023-07-30T00:18:49;4.20;;;2.42;;
3083;SDS011;1552;51.952;7.618;2023-07-30T00:21:15;4.65;;;2.65;;
3083;SDS011;1552;51.952;7.618;2023-07-30T00:23:41;3.45;;;2.80;;
3083;SDS011;1552;51.952;7.618;2023-07-30T00:26:08;4.35;;;3.40;;
3083;SDS011;1552;51.952;7.618;2023-07-30T00:28:34;5.43;;;2.67;;
3083;SDS011;1552;51.952;7.618;2023-07-30T00:31:00;4.00;;;2.75;;
3083;SDS011;1552;51.952;7.618;2023-07-30T00:33:27;5.47;;;2.88;;
3083;SDS011;1552;51.952;7.618;2023-07-30T00:35:54;5.50;;;3.42;;
3083;SDS011;1552;51.952;7.618;2023-07-30T00:38:21;4.75;;;3.15;;
3083;SDS011;1552;51.952;7.618;2023-07-30T00:40:47;6.97;;;3.17;;
3083;SDS011;1552;51.952;7.618;2023-07-30T00:43:13;5.70;;;2.85;;
3083;SDS011;1552;51.952;7.618;2023-07-30T00:45:40;3.42;;;2.95;;
3083;SDS011;1552;51.952;7.618;2023-07-30T00:48:07;3.67;;;2.50;;
3083;SDS011;1552;51.952;7.618;2023-07-30T00:50:33;4.68;;;2.47;;
3083;SDS011;1552;51.952;7.618;2023-07-30T00:53:01;5.30;;;2.85;;
3083;SDS011;1552;51.952;7.618;2023-07-30T00:55:28;3.78;;;2.28;;
3083;SDS011;1552;51.952;7.618;2023-07-30T00:57:55;3.53;;;2.78;;
3083;SDS011;1552;51.952;7.618;2023-07-30T01:00:22;3.40;;;2.42;;
3083;SDS011;1552;51.952;7.618;2023-07-30T01:02:55;5.15;;;3.05;;
3083;SDS011;1552;51.952;7.618;2023-07-30T01:05:21;4.43;;;2.70;;
3083;SDS011;1552;51.952;7.618;2023-07-30T01:07:48;4.28;;;2.75;;
3083;SDS011;1552;51.952;7.618;2023-07-30T01:10:16;7.78;;;2.58;;
3083;SDS011;1552;51.952;7.618;2023-07-30T01:12:43;9.10;;;2.92;;
3083;SDS011;1552;51.952;7.618;2023-07-30T01:15:10;4.22;;;3.13;;
3083;SDS011;1552;51.952;7.618;2023-07-30T01:17:37;5.03;;;2.70;;
3083;SDS011;1552;51.952;7.618;2023-07-30T01:20:04;5.63;;;2.55;;
3083;SDS011;1552;51.952;7.618;2023-07-30T01:22:32;4.72;;;3.13;;
3083;SDS011;1552;51.952;7.618;2023-07-30T01:24:58;5.60;;;3.38;;
3083;SDS011;1552;51.952;7.618;2023-07-30T01:27:25;4.50;;;3.03;;
3083;SDS011;1552;51.952;7.618;2023-07-30T01:29:52;3.60;;;2.47;;
3083;SDS011;1552;51.952;7.618;2023-07-30T01:32:22;5.60;;;2.85;;
3083;SDS011;1552;51.952;7.618;2023-07-30T01:34:50;4.97;;;3.58;;
3083;SDS011;1552;51.952;7.618;2023-07-30T01:37:18;9.65;;;3.10;;
3083;SDS011;1552;51.952;7.618;2023-07-30T01:39:47;6.88;;;3.45;;
3083;SDS011;1552;51.952;7.618;2023-07-30T01:42:14;5.13;;;3.03;;
3083;SDS011;1552;51.952;7.618;2023-07-30T01:44:40;7.63;;;3.45;;
3083;SDS011;1552;51.952;7.618;2023-07-30T01:47:06;9.55;;;3.15;;
3083;SDS011;1552;51.952;7.618;2023-07-30T01:49:33;5.18;;;3.08;;
3083;SDS011;1552;51.952;7.618;2023-07-30T01:51:59;3.97;;;2.67;;
3083;SDS011;1552;51.952;7.618;2023-07-30T01:54:25;4.18;;;2.65;;
3083;SDS011;1552;51.952;7.618;2023-07-30T01:56:53;6.43;;;3.15;;
3083;SDS011;1552;51.952;7.618;2023-07-30T01:59:19;8.68;;;2.95;;
3083;SDS011;1552;51.952;7.618;2023-07-30T02:01:46;7.75;;;2.53;;
3083;SDS011;1552;51.952;7.618;2023-07-30T02:04:12;6.13;;;2.55;;
3083;SDS011;1552;51.952;7.618;2023-07-30T02:06:38;5.97;;;2.97;;
3083;SDS011;1552;51.952;7.618;2023-07-30T02:09:04;4.95;;;2.67;;
3083;SDS011;1552;51.952;7.618;2023-07-30T02:11:31;4.60;;;2.78;;
3083;SDS011;1552;51.952;7.618;2023-07-30T02:13:58;3.45;;;2.75;;
3083;SDS011;1552;51.952;7.618;2023-07-30T02:16:25;3.22;;;2.63;;
3083;SDS011;1552;51.952;7.618;2023-07-30T02:18:51;4.68;;;2.08;;
3083;SDS011;1552;51.952;7.618;2023-07-30T02:21:17;5.75;;;3.20;;
3083;SDS011;1552;51.952;7.618;2023-07-30T02:23:44;4.70;;;2.45;;
3083;SDS011;1552;51.952;7.618;2023-07-30T02:26:10;8.23;;;2.50;;
3083;SDS011;1552;51.952;7.618;2023-07-30T02:28:36;4.20;;;2.60;;
3083;SDS011;1552;51.952;7.618;2023-07-30T02:31:04;4.53;;;2.22;;
3083;SDS011;1552;51.952;7.618;2023-07-30T02:33:30;14.93;;;2.58;;
3083;SDS011;1552;51.952;7.618;2023-07-30T02:35:56;6.95;;;2.28;;
3083;SDS011;1552;51.952;7.618;2023-07-30T02:38:23;3.60;;;2.20;;
3083;SDS011;1552;51.952;7.618;2023-07-30T02:40:49;5.00;;;1.70;;
3083;SDS011;1552;51.952;7.618;2023-07-30T02:43:15;3.50;;;1.73;;
3083;SDS011;1552;51.952;7.618;2023-07-30T02:45:42;14.35;;;2.17;;
3083;SDS011;1552;51.952;7.618;2023-07-30T02:48:09;3.15;;;1.63;;
3083;SDS011;1552;51.952;7.618;2023-07-30T02:50:36;5.65;;;2.08;;
3083;SDS011;1552;51.952;7.618;2023-07-30T02:53:02;4.30;;;1.70;;
3083;SDS011;1552;51.952;7.618;2023-07-30T02:55:28;3.85;;;1.40;;
3083;SDS011;1552;51.952;7.618;2023-07-30T02:57:54;3.60;;;1.70;;
3083;SDS011;1552;51.952;7.618;2023-07-30T03:00:21;3.60;;;2.10;;
3083;SDS011;1552;51.952;7.618;2023-07-30T03:02:47;4.63;;;2.20;;
3083;SDS011;1552;51.952;7.618;2023-07-30T03:05:15;4.13;;;2.90;;
3083;SDS011;1552;51.952;7.618;2023-07-30T03:07:43;12.48;;;2.22;;
3083;SDS011;1552;51.952;7.618;2023-07-30T03:10:09;3.95;;;2.03;;
3083;SDS011;1552;51.952;7.618;2023-07-30T03:12:36;3.43;;;1.53;;
3083;SDS011;1552;51.952;7.618;2023-07-30T03:15:02;2.97;;;2.05;;
3083;SDS011;1552;51.952;7.618;2023-07-30T03:17:29;8.25;;;1.88;;
3083;SDS011;1552;51.952;7.618;2023-07-30T03:19:55;5.93;;;1.70;;
3083;SDS011;1552;51.952;7.618;2023-07-30T03:22:23;2.92;;;2.28;;
3083;SDS011;1552;51.952;7.618;2023-07-30T03:24:49;4.65;;;1.75;;
3083;SDS011;1552;51.952;7.618;2023-07-30T03:27:15;5.95;;;2.17;;
3083;SDS011;1552;51.952;7.618;2023-07-30T03:29:42;4.15;;;1.92;;
3083;SDS011;1552;51.952;7.618;2023-07-30T03:32:08;4.53;;;2.13;;
3083;SDS011;1552;51.952;7.618;2023-07-30T03:34:34;2.15;;;1.60;;
3083;SDS011;1552;51.952;7.618;2023-07-30T03:37:01;4.50;;;1.60;;
3083;SDS011;1552;51.952;7.618;2023-07-30T03:39:28;8.03;;;2.83;;
3083;SDS011;1552;51.952;7.618;2023-07-30T03:41:55;12.80;;;2.90;;
3083;SDS011;1552;51.952;7.618;2023-07-30T03:44:21;8.32;;;1.83;;
3083;SDS011;1552;51.952;7.618;2023-07-30T03:46:48;4.65;;;2.33;;
3083;SDS011;1552;51.952;7.618;2023-07-30T03:49:14;5.30;;;1.92;;
3083;SDS011;1552;51.952;7.618;2023-07-30T03:51:40;7.47;;;1.77;;
3083;SDS011;1552;51.952;7.618;2023-07-30T03:54:07;4.47;;;2.15;;
3083;SDS011;1552;51.952;7.618;2023-07-30T03:56:34;16.40;;;2.13;;
3083;SDS011;1552;51.952;7.618;2023-07-30T03:59:01;4.20;;;2.85;;
3083;SDS011;1552;51.952;7.618;2023-07-30T04:01:27;2.45;;;2.13;;
3083;SDS011;1552;51.952;7.618;2023-07-30T04:03:54;4.32;;;2.47;;
3083;SDS011;1552;51.952;7.618;2023-07-30T04:06:20;4.82;;;2.05;;
3083;SDS011;1552;51.952;7.618;2023-07-30T04:08:46;11.17;;;2.73;;
3083;SDS011;1552;51.952;7.618;2023-07-30T04:11:13;4.27;;;2.23;;
3083;SDS011;1552;51.952;7.618;2023-07-30T04:13:41;3.07;;;2.23;;
3083;SDS011;1552;51.952;7.618;2023-07-30T04:16:07;6.53;;;2.40;;
3083;SDS011;1552;51.952;7.618;2023-07-30T04:18:34;6.17;;;2.97;;
3083;SDS011;1552;51.952;7.618;2023-07-30T04:21:00;6.03;;;2.23;;
3083;SDS011;1552;51.952;7.618;2023-07-30T04:23:26;6.10;;;2.10;;
3083;SDS011;1552;51.952;7.618;2023-07-30T04:25:53;2.63;;;1.75;;
3083;SDS011;1552;51.952;7.618;2023-07-30T04:28:19;5.57;;;2.10;;
3083;SDS011;1552;51.952;7.618;2023-07-30T04:30:47;3.07;;;2.10;;
3083;SDS011;1552;51.952;7.618;2023-07-30T04:33:13;6.47;;;3.03;;
3083;SDS011;1552;51.952;7.618;2023-07-30T04:35:39;2.30;;;1.83;;
3083;SDS011;1552;51.952;7.618;2023-07-30T04:38:06;10.37;;;2.70;;
3083;SDS011;1552;51.952;7.618;2023-07-30T04:40:32;5.57;;;2.60;;
3083;SDS011;1552;51.952;7.618;2023-07-30T04:42:58;3.17;;;1.80;;
3083;SDS011;1552;51.952;7.618;2023-07-30T04:45:25;3.90;;;2.70;;
3083;SDS011;1552;51.952;7.618;2023-07-30T04:47:52;13.07;;;3.27;;
3083;SDS011;1552;51.952;7.618;2023-07-30T04:50:19;4.23;;;2.13;;
3083;SDS011;1552;51.952;7.618;2023-07-30T04:52:45;3.07;;;1.70;;
3083;SDS011;1552;51.952;7.618;2023-07-30T04:55:11;3.73;;;2.47;;
3083;SDS011;1552;51.952;7.618;2023-07-30T04:57:38;4.07;;;1.97;;
3083;SDS011;1552;51.952;7.618;2023-07-30T05:00:04;3.03;;;2.20;;
3083;SDS011;1552;51.952;7.618;2023-07-30T05:02:32;3.47;;;1.70;;
3083;SDS011;1552;51.952;7.618;2023-07-30T05:05:00;3.23;;;2.10;;
3083;SDS011;1552;51.952;7.618;2023-07-30T05:07:26;3.53;;;2.20;;
3083;SDS011;1552;51.952;7.618;2023-07-30T05:09:52;11.83;;;2.40;;
3083;SDS011;1552;51.952;7.618;2023-07-30T05:12:18;3.67;;;1.97;;
3083;SDS011;1552;51.952;7.618;2023-07-30T05:14:45;6.40;;;3.08;;
3083;SDS011;1552;51.952;7.618;2023-07-30T05:17:11;5.13;;;2.60;;
3083;SDS011;1552;51.952;7.618;2023-07-30T05:19:37;6.57;;;2.30;;
3083;SDS011;1552;51.952;7.618;2023-07-30T05:22:05;6.57;;;2.47;;
3083;SDS011;1552;51.952;7.618;2023-07-30T05:24:32;7.00;;;2.75;;
3083;SDS011;1552;51.952;7.618;2023-07-30T05:26:59;5.80;;;2.75;;
3083;SDS011;1552;51.952;7.618;2023-07-30T05:29:25;5.93;;;2.97;;
3083;SDS011;1552;51.952;7.618;2023-07-30T05:31:51;4.83;;;3.33;;
3083;SDS011;1552;51.952;7.618;2023-07-30T05:34:18;4.65;;;2.65;;
3083;SDS011;1552;51.952;7.618;2023-07-30T05:36:44;8.00;;;3.40;;
3083;SDS011;1552;51.952;7.618;2023-07-30T05:39:12;8.33;;;3.73;;
3083;SDS011;1552;51.952;7.618;2023-07-30T05:41:38;8.50;;;4.40;;
3083;SDS011;1552;51.952;7.618;2023-07-30T05:44:05;11.15;;;6.53;;
3083;SDS011;1552;51.952;7.618;2023-07-30T05:46:31;24.92;;;14.75;;
3083;SDS011;1552;51.952;7.618;2023-07-30T05:48:57;9.43;;;4.72;;
3083;SDS011;1552;51.952;7.618;2023-07-30T05:51:23;13.18;;;4.32;;
3083;SDS011;1552;51.952;7.618;2023-07-30T05:53:50;8.10;;;3.90;;
3083;SDS011;1552;51.952;7.618;2023-07-30T05:56:17;6.93;;;4.07;;
3083;SDS011;1552;51.952;7.618;2023-07-30T05:58:45;13.05;;;4.07;;
3083;SDS011;1552;51.952;7.618;2023-07-30T06:01:11;7.07;;;3.55;;
3083;SDS011;1552;51.952;7.618;2023-07-30T06:03:37;7.00;;;4.18;;
3083;SDS011;1552;51.952;7.618;2023-07-30T06:06:04;9.15;;;3.92;;
3083;SDS011;1552;51.952;7.618;2023-07-30T06:08:30;9.32;;;4.20;;
3083;SDS011;1552;51.952;7.618;2023-07-30T06:10:59;8.77;;;4.60;;
3083;SDS011;1552;51.952;7.618;2023-07-30T06:13:27;6.28;;;3.83;;
3083;SDS011;1552;51.952;7.618;2023-07-30T06:15:53;10.13;;;4.35;;
3083;SDS011;1552;51.952;7.618;2023-07-30T06:18:20;8.73;;;4.32;;
3083;SDS011;1552;51.952;7.618;2023-07-30T06:20:46;11.82;;;5.53;;
3083;SDS011;1552;51.952;7.618;2023-07-30T06:23:12;10.93;;;4.82;;
3083;SDS011;1552;51.952;7.618;2023-07-30T06:25:39;19.05;;;5.97;;
3083;SDS011;1552;51.952;7.618;2023-07-30T06:28:05;8.43;;;4.78;;
3083;SDS011;1552;51.952;7.618;2023-07-30T06:30:33;12.02;;;5.75;;
3083;SDS011;1552;51.952;7.618;2023-07-30T06:33:01;11.75;;;5.03;;
3083;SDS011;1552;51.952;7.618;2023-07-30T06:35:28;10.07;;;5.10;;
3083;SDS011;1552;51.952;7.618;2023-07-30T06:37:54;19.95;;;5.65;;
3083;SDS011;1552;51.952;7.618;2023-07-30T06:40:20;10.55;;;5.45;;
3083;SDS011;1552;51.952;7.618;2023-07-30T06:42:46;11.93;;;6.55;;
3083;SDS011;1552;51.952;7.618;2023-07-30T06:45:13;12.60;;;6.30;;
3083;SDS011;1552;51.952;7.618;2023-07-30T06:47:40;9.82;;;5.78;;
3083;SDS011;1552;51.952;7.618;2023-07-30T06:50:07;11.25;;;6.15;;
3083;SDS011;1552;51.952;7.618;2023-07-30T06:52:34;11.80;;;6.00;;
3083;SDS011;1552;51.952;7.618;2023-07-30T06:55:00;13.15;;;6.38;;
3083;SDS011;1552;51.952;7.618;2023-07-30T06:57:27;11.52;;;5.88;;
3083;SDS011;1552;51.952;7.618;2023-07-30T06:59:54;9.02;;;5.18;;
3083;SDS011;1552;51.952;7.618;2023-07-30T07:02:20;12.25;;;5.30;;
3083;SDS011;1552;51.952;7.618;2023-07-30T07:04:48;11.15;;;5.90;;
3083;SDS011;1552;51.952;7.618;2023-07-30T07:07:15;10.85;;;5.00;;
3083;SDS011;1552;51.952;7.618;2023-07-30T07:09:41;13.65;;;6.60;;
3083;SDS011;1552;51.952;7.618;2023-07-30T07:12:07;9.65;;;5.07;;
3083;SDS011;1552;51.952;7.618;2023-07-30T07:14:34;14.95;;;5.70;;
3083;SDS011;1552;51.952;7.618;2023-07-30T07:17:00;13.43;;;5.75;;
3083;SDS011;1552;51.952;7.618;2023-07-30T07:19:26;15.07;;;6.25;;
3083;SDS011;1552;51.952;7.618;2023-07-30T07:21:54;10.38;;;4.93;;
3083;SDS011;1552;51.952;7.618;2023-07-30T07:24:20;9.75;;;6.65;;
3083;SDS011;1552;51.952;7.618;2023-07-30T07:26:46;15.13;;;5.97;;
3083;SDS011;1552;51.952;7.618;2023-07-30T07:29:13;13.32;;;5.90;;
3083;SDS011;1552;51.952;7.618;2023-07-30T07:31:39;11.05;;;4.97;;
3083;SDS011;1552;51.952;7.618;2023-07-30T07:34:06;11.98;;;5.65;;
3083;SDS011;1552;51.952;7.618;2023-07-30T07:36:32;13.57;;;5.53;;
3083;SDS011;1552;51.952;7.618;2023-07-30T07:39:01;15.75;;;5.97;;
3083;SDS011;1552;51.952;7.618;2023-07-30T07:41:28;10.98;;;5.75;;
3083;SDS011;1552;51.952;7.618;2023-07-30T07:43:54;13.93;;;5.43;;
3083;SDS011;1552;51.952;7.618;2023-07-30T07:46:22;15.55;;;6.05;;
3083;SDS011;1552;51.952;7.618;2023-07-30T07:48:48;13.88;;;5.45;;
3083;SDS011;1552;51.952;7.618;2023-07-30T07:51:15;11.25;;;5.60;;
3083;SDS011;1552;51.952;7.618;2023-07-30T07:53:41;13.15;;;5.60;;
3083;SDS011;1552;51.952;7.618;2023-07-30T07:56:10;13.10;;;5.93;;
3083;SDS011;1552;51.952;7.618;2023-07-30T07:58:36;12.98;;;5.05;;
3083;SDS011;1552;51.952;7.618;2023-07-30T08:01:02;9.45;;;5.22;;
3083;SDS011;1552;51.952;7.618;2023-07-30T08:03:29;12.10;;;5.05;;
3083;SDS011;1552;51.952;7.618;2023-07-30T08:05:58;13.48;;;5.05;;
3083;SDS011;1552;51.952;7.618;2023-07-30T08:08:25;17.40;;;5.65;;
3083;SDS011;1552;51.952;7.618;2023-07-30T08:10:51;8.05;;;5.25;;
3083;SDS011;1552;51.952;7.618;2023-07-30T08:13:19;6.85;;;4.07;;
3083;SDS011;1552;51.952;7.618;2023-07-30T08:15:46;13.40;;;5.70;;
3083;SDS011;1552;51.952;7.618;2023-07-30T08:18:12;9.63;;;5.40;;
3083;SDS011;1552;51.952;7.618;2023-07-30T08:20:38;19.80;;;6.13;;
3083;SDS011;1552;51.952;7.618;2023-07-30T08:23:05;11.70;;;6.15;;
3083;SDS011;1552;51.952;7.618;2023-07-30T08:25:31;13.23;;;5.55;;
3083;SDS011;1552;51.952;7.618;2023-07-30T08:27:57;12.95;;;5.80;;
3083;SDS011;1552;51.952;7.618;2023-07-30T08:30:25;17.60;;;4.97;;
3083;SDS011;1552;51.952;7.618;2023-07-30T08:32:51;9.98;;;5.45;;
3083;SDS011;1552;51.952;7.618;2023-07-30T08:35:17;10.10;;;4.70;;
3083;SDS011;1552;51.952;7.618;2023-07-30T08:37:44;10.55;;;5.57;;
3083;SDS011;1552;51.952;7.618;2023-07-30T08:40:10;13.02;;;5.20;;
3083;SDS011;1552;51.952;7.618;2023-07-30T08:42:37;21.05;;;6.13;;
3083;SDS011;1552;51.952;7.618;2023-07-30T08:45:03;12.02;;;5.20;;
3083;SDS011;1552;51.952;7.618;2023-07-30T08:47:33;10.48;;;5.43;;
3083;SDS011;1552;51.952;7.618;2023-07-30T08:49:59;18.15;;;5.90;;
3083;SDS011;1552;51.952;7.618;2023-07-30T08:52:26;10.25;;;5.20;;
3083;SDS011;1552;51.952;7.618;2023-07-30T08:54:53;17.85;;;5.47;;
3083;SDS011;1552;51.952;7.618;2023-07-30T08:57:21;9.38;;;4.75;;
3083;SDS011;1552;51.952;7.618;2023-07-30T08:59:49;13.63;;;5.43;;
3083;SDS011;1552;51.952;7.618;2023-07-30T09:02:18;9.98;;;4.20;;
3083;SDS011;1552;51.952;7.618;2023-07-30T09:04:48;10.95;;;4.60;;
3083;SDS011;1552;51.952;7.618;2023-07-30T09:07:17;9.02;;;4.53;;
3083;SDS011;1552;51.952;7.618;2023-07-30T09:09:43;8.40;;;4.00;;
3083;SDS011;1552;51.952;7.618;2023-07-30T09:12:12;16.38;;;5.60;;
3083;SDS011;1552;51.952;7.618;2023-07-30T09:14:38;11.98;;;5.18;;
3083;SDS011;1552;51.952;7.618;2023-07-30T09:17:05;7.63;;;3.75;;
3083;SDS011;1552;51.952;7.618;2023-07-30T09:19:34;17.98;;;3.95;;
3083;SDS011;1552;51.952;7.618;2023-07-30T09:22:04;9.20;;;5.05;;
3083;SDS011;1552;51.952;7.618;2023-07-30T09:24:31;8.32;;;4.65;;
3083;SDS011;1552;51.952;7.618;2023-07-30T09:26:57;8.30;;;3.45;;
3083;SDS011;1552;51.952;7.618;2023-07-30T09:29:27;8.55;;;4.28;;
3083;SDS011;1552;51.952;7.618;2023-07-30T09:31:54;6.55;;;3.78;;
3083;SDS011;1552;51.952;7.618;2023-07-30T09:34:21;10.60;;;4.10;;
3083;SDS011;1552;51.952;7.618;2023-07-30T09:36:49;7.22;;;3.35;;
3083;SDS011;1552;51.952;7.618;2023-07-30T09:39:18;8.70;;;3.80;;
3083;SDS011;1552;51.952;7.618;2023-07-30T09:41:45;8.07;;;4.07;;
3083;SDS011;1552;51.952;7.618;2023-07-30T09:44:11;13.82;;;4.47;;
3083;SDS011;1552;51.952;7.618;2023-07-30T09:46:42;6.47;;;3.85;;
3083;SDS011;1552;51.952;7.618;2023-07-30T09:49:08;10.13;;;4.57;;
3083;SDS011;1552;51.952;7.618;2023-07-30T09:51:35;6.65;;;3.67;;
3083;SDS011;1552;51.952;7.618;2023-07-30T09:54:02;6.70;;;4.00;;
3083;SDS011;1552;51.952;7.618;2023-07-30T09:56:30;7.45;;;3.60;;
3083;SDS011;1552;51.952;7.618;2023-07-30T09:58:56;8.85;;;3.97;;
3083;SDS011;1552;51.952;7.618;2023-07-30T10:01:23;11.73;;;4.13;;
3083;SDS011;1552;51.952;7.618;2023-07-30T10:03:49;17.27;;;4.10;;
3083;SDS011;1552;51.952;7.618;2023-07-30T10:06:16;11.77;;;4.03;;
3083;SDS011;1552;51.952;7.618;2023-07-30T10:08:42;6.97;;;3.78;;
3083;SDS011;1552;51.952;7.618;2023-07-30T10:11:10;5.20;;;3.40;;
3083;SDS011;1552;51.952;7.618;2023-07-30T10:13:38;5.75;;;2.88;;
3083;SDS011;1552;51.952;7.618;2023-07-30T10:16:08;5.90;;;2.67;;
3083;SDS011;1552;51.952;7.618;2023-07-30T10:18:37;18.08;;;3.55;;
3083;SDS011;1552;51.952;7.618;2023-07-30T10:21:04;4.93;;;2.60;;
3083;SDS011;1552;51.952;7.618;2023-07-30T10:23:33;7.53;;;3.15;;
3083;SDS011;1552;51.952;7.618;2023-07-30T10:25:59;6.68;;;2.85;;
3083;SDS011;1552;51.952;7.618;2023-07-30T10:28:34;6.30;;;3.05;;
3083;SDS011;1552;51.952;7.618;2023-07-30T10:31:06;5.47;;;2.00;;
3083;SDS011;1552;51.952;7.618;2023-07-30T10:36:31;4.45;;;2.08;;
3083;SDS011;1552;51.952;7.618;2023-07-30T10:38:57;7.68;;;2.00;;
3083;SDS011;1552;51.952;7.618;2023-07-30T10:41:23;2.40;;;1.85;;
3083;SDS011;1552;51.952;7.618;2023-07-30T10:43:50;7.22;;;2.47;;
3083;SDS011;1552;51.952;7.618;2023-07-30T10:46:19;4.38;;;2.03;;
3083;SDS011;1552;51.952;7.618;2023-07-30T10:48:46;4.45;;;1.95;;
3083;SDS011;1552;51.952;7.618;2023-07-30T10:51:13;6.03;;;2.13;;
3083;SDS011;1552;51.952;7.618;2023-07-30T10:53:41;5.50;;;2.00;;
3083;SDS011;1552;51.952;7.618;2023-07-30T10:56:08;10.05;;;2.67;;
3083;SDS011;1552;51.952;7.618;2023-07-30T10:58:35;10.15;;;1.90;;
3083;SDS011;1552;51.952;7.618;2023-07-30T11:01:02;4.55;;;1.38;;
3083;SDS011;1552;51.952;7.618;2023-07-30T11:03:30;7.63;;;1.48;;
3083;SDS011;1552;51.952;7.618;2023-07-30T11:05:57;5.10;;;1.38;;
3083;SDS011;1552;51.952;7.618;2023-07-30T11:08:31;2.03;;;1.33;;
3083;SDS011;1552;51.952;7.618;2023-07-30T11:10:58;5.75;;;1.45;;
3083;SDS011;1552;51.952;7.618;2023-07-30T11:13:24;3.17;;;1.40;;
3083;SDS011;1552;51.952;7.618;2023-07-30T11:15:51;4.93;;;2.05;;
3083;SDS011;1552;51.952;7.618;2023-07-30T11:18:17;4.68;;;1.92;;
3083;SDS011;1552;51.952;7.618;2023-07-30T11:20:45;6.03;;;1.80;;
3083;SDS011;1552;51.952;7.618;2023-07-30T11:23:18;7.18;;;1.98;;
3083;SDS011;1552;51.952;7.618;2023-07-30T11:25:48;4.97;;;1.55;;
3083;SDS011;1552;51.952;7.618;2023-07-30T11:28:15;5.90;;;1.90;;
3083;SDS011;1552;51.952;7.618;2023-07-30T11:30:52;4.72;;;2.05;;
3083;SDS011;1552;51.952;7.618;2023-07-30T11:33:19;4.07;;;1.45;;
3083;SDS011;1552;51.952;7.618;2023-07-30T11:35:46;2.85;;;1.38;;
3083;SDS011;1552;51.952;7.618;2023-07-30T11:38:13;3.90;;;1.58;;
3083;SDS011;1552;51.952;7.618;2023-07-30T11:40:39;5.43;;;1.67;;
3083;SDS011;1552;51.952;7.618;2023-07-30T11:43:06;7.50;;;2.13;;
3083;SDS011;1552;51.952;7.618;2023-07-30T11:45:32;2.53;;;1.42;;
3083;SDS011;1552;51.952;7.618;2023-07-30T11:48:05;11.50;;;1.73;;
3083;SDS011;1552;51.952;7.618;2023-07-30T11:50:41;5.00;;;2.05;;
3083;SDS011;1552;51.952;7.618;2023-07-30T11:53:09;5.10;;;1.63;;
3083;SDS011;1552;51.952;7.618;2023-07-30T11:55:39;2.80;;;1.55;;
3083;SDS011;1552;51.952;7.618;2023-07-30T11:58:06;3.42;;;1.58;;
3083;SDS011;1552;51.952;7.618;2023-07-30T12:00:34;9.10;;;2.13;;
3083;SDS011;1552;51.952;7.618;2023-07-30T12:03:02;3.65;;;1.65;;
3083;SDS011;1552;51.952;7.618;2023-07-30T12:05:32;9.55;;;2.28;;
3083;SDS011;1552;51.952;7.618;2023-07-30T12:07:59;5.28;;;1.90;;
3083;SDS011;1552;51.952;7.618;2023-07-30T12:10:37;3.97;;;1.48;;
3083;SDS011;1552;51.952;7.618;2023-07-30T12:13:10;3.78;;;1.85;;
3083;SDS011;1552;51.952;7.618;2023-07-30T12:15:36;3.78;;;1.80;;
3083;SDS011;1552;51.952;7.618;2023-07-30T12:18:03;2.53;;;1.63;;
3083;SDS011;1552;51.952;7.618;2023-07-30T12:20:29;2.85;;;1.75;;
3083;SDS011;1552;51.952;7.618;2023-07-30T12:22:56;6.90;;;1.75;;
3083;SDS011;1552;51.952;7.618;2023-07-30T12:25:22;6.45;;;1.80;;
3083;SDS011;1552;51.952;7.618;2023-07-30T12:27:50;4.13;;;1.90;;
3083;SDS011;1552;51.952;7.618;2023-07-30T12:30:16;2.78;;;1.75;;
3083;SDS011;1552;51.952;7.618;2023-07-30T12:32:43;6.70;;;1.70;;
3083;SDS011;1552;51.952;7.618;2023-07-30T12:35:09;3.33;;;1.65;;
3083;SDS011;1552;51.952;7.618;2023-07-30T12:37:35;6.30;;;1.92;;
3083;SDS011;1552;51.952;7.618;2023-07-30T12:40:02;3.45;;;1.77;;
3083;SDS011;1552;51.952;7.618;2023-07-30T12:42:29;3.00;;;1.63;;
3083;SDS011;1552;51.952;7.618;2023-07-30T12:44:57;3.33;;;1.05;;
3083;SDS011;1552;51.952;7.618;2023-07-30T12:47:23;5.07;;;1.20;;
3083;SDS011;1552;51.952;7.618;2023-07-30T12:49:50;2.50;;;1.33;;
3083;SDS011;1552;51.952;7.618;2023-07-30T12:52:16;1.45;;;0.80;;
3083;SDS011;1552;51.952;7.618;2023-07-30T12:54:42;1.55;;;0.75;;
3083;SDS011;1552;51.952;7.618;2023-07-30T12:57:09;1.63;;;0.85;;
3083;SDS011;1552;51.952;7.618;2023-07-30T12:59:36;0.80;;;0.75;;
3083;SDS011;1552;51.952;7.618;2023-07-30T13:02:04;2.58;;;0.98;;
3083;SDS011;1552;51.952;7.618;2023-07-30T13:04:30;1.10;;;0.75;;
3083;SDS011;1552;51.952;7.618;2023-07-30T13:06:57;2.58;;;1.15;;
3083;SDS011;1552;51.952;7.618;2023-07-30T13:09:23;1.45;;;1.10;;
3083;SDS011;1552;51.952;7.618;2023-07-30T13:11:49;1.55;;;0.98;;
3083;SDS011;1552;51.952;7.618;2023-07-30T13:14:16;2.85;;;1.50;;
3083;SDS011;1552;51.952;7.618;2023-07-30T13:16:42;4.63;;;1.45;;
3083;SDS011;1552;51.952;7.618;2023-07-30T13:19:10;2.10;;;1.15;;
3083;SDS011;1552;51.952;7.618;2023-07-30T13:21:37;1.98;;;1.20;;
3083;SDS011;1552;51.952;7.618;2023-07-30T13:24:03;4.30;;;1.40;;
3083;SDS011;1552;51.952;7.618;2023-07-30T13:26:30;3.95;;;1.48;;
3083;SDS011;1552;51.952;7.618;2023-07-30T13:28:56;1.42;;;1.23;;
3083;SDS011;1552;51.952;7.618;2023-07-30T13:31:22;4.18;;;1.90;;
3083;SDS011;1552;51.952;7.618;2023-07-30T13:33:49;5.15;;;1.67;;
3083;SDS011;1552;51.952;7.618;2023-07-30T13:36:17;2.30;;;1.10;;
3083;SDS011;1552;51.952;7.618;2023-07-30T13:38:44;2.78;;;1.38;;
3083;SDS011;1552;51.952;7.618;2023-07-30T13:41:10;3.72;;;1.38;;
3083;SDS011;1552;51.952;7.618;2023-07-30T13:43:36;2.10;;;1.42;;
3083;SDS011;1552;51.952;7.618;2023-07-30T13:46:03;3.80;;;1.30;;
3083;SDS011;1552;51.952;7.618;2023-07-30T13:48:29;3.38;;;1.30;;
3083;SDS011;1552;51.952;7.618;2023-07-30T13:50:55;5.78;;;1.25;;
3083;SDS011;1552;51.952;7.618;2023-07-30T13:53:23;2.28;;;1.25;;
3083;SDS011;1552;51.952;7.618;2023-07-30T13:55:50;6.43;;;1.33;;
3083;SDS011;1552;51.952;7.618;2023-07-30T13:58:16;2.17;;;1.25;;
3083;SDS011;1552;51.952;7.618;2023-07-30T14:00:42;2.45;;;1.17;;
3083;SDS011;1552;51.952;7.618;2023-07-30T14:03:09;3.30;;;1.33;;
3083;SDS011;1552;51.952;7.618;2023-07-30T14:05:36;3.10;;;1.10;;
3083;SDS011;1552;51.952;7.618;2023-07-30T14:08:02;4.75;;;1.23;;
3083;SDS011;1552;51.952;7.618;2023-07-30T14:10:30;4.85;;;1.65;;
3083;SDS011;1552;51.952;7.618;2023-07-30T14:12:56;2.40;;;0.90;;
3083;SDS011;1552;51.952;7.618;2023-07-30T14:15:23;1.60;;;1.50;;
3083;SDS011;1552;51.952;7.618;2023-07-30T14:17:49;2.63;;;1.48;;
3083;SDS011;1552;51.952;7.618;2023-07-30T14:20:17;4.95;;;1.20;;
3083;SDS011;1552;51.952;7.618;2023-07-30T14:22:43;1.95;;;1.50;;
3083;SDS011;1552;51.952;7.618;2023-07-30T14:25:09;3.92;;;1.00;;
3083;SDS011;1552;51.952;7.618;2023-07-30T14:27:37;1.45;;;1.30;;
3083;SDS011;1552;51.952;7.618;2023-07-30T14:30:04;3.80;;;1.35;;
3083;SDS011;1552;51.952;7.618;2023-07-30T14:32:30;1.90;;;1.00;;
3083;SDS011;1552;51.952;7.618;2023-07-30T14:34:57;3.75;;;1.55;;
3083;SDS011;1552;51.952;7.618;2023-07-30T14:37:23;1.15;;;1.02;;
3083;SDS011;1552;51.952;7.618;2023-07-30T14:39:49;1.33;;;0.95;;
3083;SDS011;1552;51.952;7.618;2023-07-30T14:42:16;1.58;;;0.90;;
3083;SDS011;1552;51.952;7.618;2023-07-30T14:44:43;3.55;;;1.10;;
3083;SDS011;1552;51.952;7.618;2023-07-30T14:47:10;1.98;;;1.08;;
3083;SDS011;1552;51.952;7.618;2023-07-30T14:49:37;5.57;;;1.33;;
3083;SDS011;1552;51.952;7.618;2023-07-30T14:52:03;2.17;;;1.17;;
3083;SDS011;1552;51.952;7.618;2023-07-30T14:54:30;2.65;;;1.52;;
3083;SDS011;1552;51.952;7.618;2023-07-30T14:56:56;2.15;;;1.05;;
3083;SDS011;1552;51.952;7.618;2023-07-30T14:59:23;3.00;;;1.17;;
3083;SDS011;1552;51.952;7.618;2023-07-30T15:01:51;1.92;;;1.10;;
3083;SDS011;1552;51.952;7.618;2023-07-30T15:04:18;2.42;;;1.40;;
3083;SDS011;1552;51.952;7.618;2023-07-30T15:06:44;3.22;;;1.80;;
3083;SDS011;1552;51.952;7.618;2023-07-30T15:09:10;2.00;;;1.00;;
3083;SDS011;1552;51.952;7.618;2023-07-30T15:11:37;1.15;;;1.00;;
3083;SDS011;1552;51.952;7.618;2023-07-30T15:14:03;1.50;;;1.15;;